createdAt,value
2016-08-31T00:00:39.050Z,12.66
2016-08-31T00:01:38.876Z,12.73
2016-08-31T00:02:38.786Z,12.61
2016-08-31T00:03:39.525Z,12.66
2016-08-31T00:04:39.558Z,12.62
2016-08-31T00:05:39.587Z,12.62
2016-08-31T00:06:38.977Z,12.48
2016-08-31T00:07:39.624Z,12.48
2016-08-31T00:08:39.631Z,12.47
2016-08-31T00:09:40.408Z,12.48
2016-08-31T00:10:40.386Z,12.5
2016-08-31T00:11:39.065Z,12.45
2016-08-31T00:12:40.426Z,12.55
2016-08-31T00:13:40.451Z,12.61
2016-08-31T00:14:39.752Z,12.47
2016-08-31T00:15:39.065Z,12.44
2016-08-31T00:16:39.827Z,12.5
2016-08-31T00:17:39.827Z,12.48
2016-08-31T00:18:40.564Z,12.48
2016-08-31T00:19:39.852Z,12.47
2016-08-31T00:20:39.882Z,12.45
2016-08-31T00:21:39.918Z,12.33
2016-08-31T00:22:39.922Z,12.35
2016-08-31T00:23:40.665Z,12.37
2016-08-31T00:24:40.038Z,12.4
2016-08-31T00:25:40.697Z,12.4
2016-08-31T00:26:40.014Z,12.35
2016-08-31T00:27:40.044Z,12.36
2016-08-31T00:28:40.040Z,12.3
2016-08-31T00:29:40.076Z,12.39
2016-08-31T00:30:39.379Z,12.37
2016-08-31T00:31:40.101Z,12.36
2016-08-31T00:32:40.116Z,12.43
2016-08-31T00:33:40.869Z,12.33
2016-08-31T00:34:40.182Z,12.32
2016-08-31T00:35:40.191Z,12.36
2016-08-31T00:36:40.928Z,12.33
2016-08-31T00:37:40.237Z,12.37
2016-08-31T00:38:40.962Z,12.32
2016-08-31T00:39:40.985Z,12.26
2016-08-31T00:40:40.293Z,12.28
2016-08-31T00:41:40.313Z,12.35
2016-08-31T00:42:40.346Z,12.28
2016-08-31T00:43:40.375Z,12.35
2016-08-31T00:44:40.386Z,12.33
2016-08-31T00:45:40.383Z,12.3
2016-08-31T00:46:39.704Z,12.28
2016-08-31T00:47:40.437Z,12.33
2016-08-31T00:48:39.745Z,12.25
2016-08-31T00:49:40.469Z,12.28
2016-08-31T00:50:41.196Z,12.29
2016-08-31T00:51:40.576Z,12.37
2016-08-31T00:52:40.557Z,12.26
2016-08-31T00:53:40.562Z,12.21
2016-08-31T00:54:40.677Z,12.25
2016-08-31T00:55:40.596Z,12.32
2016-08-31T00:56:39.892Z,12.18
2016-08-31T00:57:41.475Z,12.23
2016-08-31T00:58:41.367Z,12.3
2016-08-31T00:59:40.697Z,12.28
2016-08-31T01:00:40.707Z,12.23
2016-08-31T01:01:40.095Z,12.21
2016-08-31T01:02:40.046Z,12.14
2016-08-31T01:03:40.055Z,12.26
2016-08-31T01:04:40.787Z,12.17
2016-08-31T01:05:40.798Z,12.25
2016-08-31T01:06:40.120Z,12.14
2016-08-31T01:07:40.131Z,12.26
2016-08-31T01:08:40.912Z,12.15
2016-08-31T01:09:40.880Z,12.15
2016-08-31T01:10:40.191Z,12.17
2016-08-31T01:11:40.222Z,12.18
2016-08-31T01:12:40.956Z,12.18
2016-08-31T01:13:40.970Z,12.15
2016-08-31T01:14:40.268Z,12.12
2016-08-31T01:15:41.129Z,12.07
2016-08-31T01:16:41.020Z,12.1
2016-08-31T01:17:40.346Z,12.07
2016-08-31T01:18:41.785Z,12.02
2016-08-31T01:19:40.395Z,11.96
2016-08-31T01:20:40.483Z,12.07
2016-08-31T01:21:41.188Z,12.02
2016-08-31T01:22:41.155Z,12.05
2016-08-31T01:23:41.900Z,12.02
2016-08-31T01:24:40.567Z,12.02
2016-08-31T01:25:41.916Z,12.05
2016-08-31T01:26:40.537Z,12.07
2016-08-31T01:27:41.255Z,12.02
2016-08-31T01:28:40.649Z,12.08
2016-08-31T01:29:41.302Z,11.95
2016-08-31T01:30:41.326Z,12.08
2016-08-31T01:31:40.635Z,12.03
2016-08-31T01:32:41.345Z,12.08
2016-08-31T01:33:42.087Z,11.96
2016-08-31T01:34:42.103Z,11.89
2016-08-31T01:35:41.409Z,11.99
2016-08-31T01:36:41.438Z,11.96
2016-08-31T01:37:40.765Z,12.02
2016-08-31T01:38:41.497Z,12.07
2016-08-31T01:39:41.484Z,11.95
2016-08-31T01:40:41.516Z,11.97
2016-08-31T01:41:41.558Z,11.97
2016-08-31T01:42:41.556Z,11.96
2016-08-31T01:43:41.755Z,12.07
2016-08-31T01:44:41.607Z,12.08
2016-08-31T01:45:41.618Z,12.03
2016-08-31T01:46:42.346Z,11.97
2016-08-31T01:47:42.365Z,11.95
2016-08-31T01:48:42.394Z,12.07
2016-08-31T01:49:42.396Z,12
2016-08-31T01:50:42.426Z,11.99
2016-08-31T01:51:42.451Z,11.93
2016-08-31T01:52:41.137Z,11.86
2016-08-31T01:53:41.801Z,11.93
2016-08-31T01:54:42.516Z,11.86
2016-08-31T01:55:41.817Z,11.91
2016-08-31T01:56:41.845Z,11.86
2016-08-31T01:57:42.576Z,11.91
2016-08-31T01:58:41.897Z,11.86
2016-08-31T01:59:41.905Z,11.88
2016-08-31T02:00:41.206Z,11.81
2016-08-31T02:01:41.310Z,11.86
2016-08-31T02:02:41.958Z,11.85
2016-08-31T02:03:42.065Z,11.91
2016-08-31T02:04:42.007Z,11.85
2016-08-31T02:05:42.066Z,11.78
2016-08-31T02:06:42.753Z,11.77
2016-08-31T02:07:41.405Z,11.86
2016-08-31T02:08:41.482Z,11.76
2016-08-31T02:09:42.109Z,11.73
2016-08-31T02:10:42.113Z,11.8
2016-08-31T02:11:41.438Z,11.8
2016-08-31T02:12:41.455Z,11.74
2016-08-31T02:13:42.237Z,11.8
2016-08-31T02:14:42.206Z,11.7
2016-08-31T02:15:42.226Z,11.7
2016-08-31T02:16:42.253Z,11.73
2016-08-31T02:17:42.263Z,11.7
2016-08-31T02:18:42.286Z,11.8
2016-08-31T02:19:42.298Z,11.71
2016-08-31T02:20:42.326Z,11.65
2016-08-31T02:21:42.356Z,11.7
2016-08-31T02:22:43.065Z,11.68
2016-08-31T02:23:43.091Z,11.6
2016-08-31T02:24:43.229Z,11.63
2016-08-31T02:25:41.707Z,11.7
2016-08-31T02:26:42.438Z,11.7
2016-08-31T02:27:42.485Z,11.7
2016-08-31T02:28:42.476Z,11.68
2016-08-31T02:29:43.217Z,11.7
2016-08-31T02:30:41.825Z,11.74
2016-08-31T02:31:42.535Z,11.76
2016-08-31T02:32:42.565Z,11.62
2016-08-31T02:33:41.875Z,11.65
2016-08-31T02:34:42.589Z,11.58
2016-08-31T02:35:42.627Z,11.59
2016-08-31T02:36:42.735Z,11.62
2016-08-31T02:37:43.388Z,11.67
2016-08-31T02:38:41.976Z,11.65
2016-08-31T02:39:43.429Z,11.59
2016-08-31T02:40:43.434Z,11.67
2016-08-31T02:41:42.735Z,11.67
2016-08-31T02:42:42.050Z,11.59
2016-08-31T02:43:42.786Z,11.58
2016-08-31T02:44:43.644Z,11.56
2016-08-31T02:45:42.847Z,11.52
2016-08-31T02:46:42.146Z,11.56
2016-08-31T02:47:42.866Z,11.52
2016-08-31T02:48:42.251Z,11.59
2016-08-31T02:49:43.607Z,11.58
2016-08-31T02:50:42.936Z,11.59
2016-08-31T02:51:42.937Z,11.44
2016-08-31T02:52:42.246Z,11.49
2016-08-31T02:53:43.067Z,11.49
2016-08-31T02:54:43.008Z,11.45
2016-08-31T02:55:43.128Z,11.49
2016-08-31T02:56:43.039Z,11.45
2016-08-31T02:57:43.919Z,11.48
2016-08-31T02:58:42.378Z,11.44
2016-08-31T02:59:43.825Z,11.45
2016-08-31T03:00:43.135Z,11.43
2016-08-31T03:01:43.181Z,11.49
2016-08-31T03:02:42.522Z,11.38
2016-08-31T03:03:43.891Z,11.41
2016-08-31T03:04:43.917Z,11.35
2016-08-31T03:05:43.237Z,11.35
2016-08-31T03:06:43.258Z,11.33
2016-08-31T03:07:43.278Z,11.33
2016-08-31T03:08:43.286Z,11.26
2016-08-31T03:09:43.315Z,11.26
2016-08-31T03:10:42.667Z,11.26
2016-08-31T03:11:44.048Z,11.2
2016-08-31T03:12:43.365Z,11.19
2016-08-31T03:13:43.435Z,11.22
2016-08-31T03:14:42.696Z,11.2
2016-08-31T03:15:44.137Z,11.22
2016-08-31T03:16:43.528Z,11.19
2016-08-31T03:17:42.817Z,11.18
2016-08-31T03:18:44.196Z,11.2
2016-08-31T03:19:43.525Z,11.13
2016-08-31T03:20:42.816Z,11.15
2016-08-31T03:21:44.296Z,11.16
2016-08-31T03:22:43.565Z,11.13
2016-08-31T03:23:43.701Z,11.15
2016-08-31T03:24:44.316Z,11
2016-08-31T03:25:42.904Z,11.08
2016-08-31T03:26:44.363Z,11.12
2016-08-31T03:27:43.047Z,11.12
2016-08-31T03:28:43.778Z,11.07
2016-08-31T03:29:43.698Z,10.98
2016-08-31T03:30:44.428Z,11.01
2016-08-31T03:31:43.025Z,11.01
2016-08-31T03:32:43.141Z,10.94
2016-08-31T03:33:43.788Z,10.95
2016-08-31T03:34:44.516Z,10.98
2016-08-31T03:35:43.825Z,10.87
2016-08-31T03:36:44.608Z,10.86
2016-08-31T03:37:43.868Z,10.98
2016-08-31T03:38:43.866Z,10.94
2016-08-31T03:39:44.601Z,10.8
2016-08-31T03:40:44.770Z,10.92
2016-08-31T03:41:43.946Z,10.89
2016-08-31T03:42:43.964Z,10.92
2016-08-31T03:43:44.018Z,10.95
2016-08-31T03:44:44.722Z,10.9
2016-08-31T03:45:44.727Z,10.92
2016-08-31T03:46:44.039Z,10.87
2016-08-31T03:47:44.050Z,10.9
2016-08-31T03:48:44.075Z,10.92
2016-08-31T03:49:44.088Z,10.84
2016-08-31T03:50:44.845Z,10.82
2016-08-31T03:51:44.137Z,10.9
2016-08-31T03:52:44.871Z,10.84
2016-08-31T03:53:44.879Z,10.9
2016-08-31T03:54:44.197Z,10.95
2016-08-31T03:55:44.217Z,10.87
2016-08-31T03:56:44.239Z,10.9
2016-08-31T03:57:43.556Z,10.92
2016-08-31T03:58:43.569Z,10.92
2016-08-31T03:59:43.583Z,10.83
2016-08-31T04:00:45.048Z,10.87
2016-08-31T04:01:44.334Z,10.89
2016-08-31T04:02:44.357Z,10.87
2016-08-31T04:03:44.365Z,10.9
2016-08-31T04:04:45.097Z,10.86
2016-08-31T04:05:44.415Z,10.83
2016-08-31T04:06:43.723Z,10.86
2016-08-31T04:07:44.763Z,10.86
2016-08-31T04:08:44.475Z,10.83
2016-08-31T04:09:44.496Z,10.82
2016-08-31T04:10:44.517Z,10.8
2016-08-31T04:11:43.811Z,10.77
2016-08-31T04:12:45.258Z,10.82
2016-08-31T04:13:44.565Z,10.76
2016-08-31T04:14:43.897Z,10.77
2016-08-31T04:15:43.906Z,10.79
2016-08-31T04:16:44.635Z,10.83
2016-08-31T04:17:44.647Z,10.86
2016-08-31T04:18:44.047Z,10.8
2016-08-31T04:19:44.694Z,10.86
2016-08-31T04:20:44.719Z,10.77
2016-08-31T04:21:44.755Z,10.89
2016-08-31T04:22:44.799Z,10.83
2016-08-31T04:23:44.755Z,10.89
2016-08-31T04:24:44.077Z,10.84
2016-08-31T04:25:45.512Z,10.84
2016-08-31T04:26:44.103Z,10.83
2016-08-31T04:27:44.129Z,10.84
2016-08-31T04:28:44.166Z,10.83
2016-08-31T04:29:44.887Z,10.83
2016-08-31T04:30:44.888Z,10.72
2016-08-31T04:31:44.919Z,10.71
2016-08-31T04:32:45.659Z,10.72
2016-08-31T04:33:44.247Z,10.75
2016-08-31T04:34:44.974Z,10.72
2016-08-31T04:35:44.297Z,10.82
2016-08-31T04:36:45.725Z,10.86
2016-08-31T04:37:45.147Z,10.82
2016-08-31T04:38:45.770Z,10.89
2016-08-31T04:40:16.673Z,10.94
2016-08-31T04:40:45.793Z,10.92
2016-08-31T04:41:45.867Z,11
2016-08-31T04:42:45.850Z,11.01
2016-08-31T04:43:45.908Z,10.98
2016-08-31T04:44:45.182Z,11.04
2016-08-31T04:45:45.195Z,10.97
2016-08-31T04:46:45.213Z,10.98
2016-08-31T04:47:45.242Z,11.01
2016-08-31T04:48:45.287Z,11.01
2016-08-31T04:49:45.287Z,11.07
2016-08-31T04:50:45.348Z,11.07
2016-08-31T04:51:45.327Z,11.04
2016-08-31T04:52:45.334Z,11.08
2016-08-31T04:53:46.067Z,11.18
2016-08-31T04:54:45.375Z,11.22
2016-08-31T04:55:45.392Z,11.25
2016-08-31T04:56:44.717Z,11.27
2016-08-31T04:57:45.438Z,11.23
2016-08-31T04:58:45.465Z,11.23
2016-08-31T04:59:45.472Z,11.23
2016-08-31T05:00:45.497Z,11.27
2016-08-31T05:01:45.530Z,11.33
2016-08-31T05:02:45.520Z,11.34
2016-08-31T05:03:46.333Z,11.35
2016-08-31T05:04:44.875Z,11.34
2016-08-31T05:05:46.307Z,11.35
2016-08-31T05:06:46.316Z,11.34
2016-08-31T05:07:44.957Z,11.34
2016-08-31T05:08:46.363Z,11.41
2016-08-31T05:09:45.676Z,11.45
2016-08-31T05:10:45.039Z,11.45
2016-08-31T05:11:45.707Z,11.56
2016-08-31T05:12:45.746Z,11.55
2016-08-31T05:13:46.505Z,11.55
2016-08-31T05:14:45.851Z,11.53
2016-08-31T05:15:45.777Z,11.58
2016-08-31T05:16:45.821Z,11.6
2016-08-31T05:17:46.537Z,11.68
2016-08-31T05:18:46.555Z,11.65
2016-08-31T05:19:45.875Z,11.7
2016-08-31T05:20:45.887Z,11.67
2016-08-31T05:21:45.197Z,11.68
2016-08-31T05:22:45.937Z,11.77
2016-08-31T05:23:45.939Z,11.73
2016-08-31T05:24:45.979Z,11.77
2016-08-31T05:25:46.130Z,11.78
2016-08-31T05:26:46.035Z,11.85
2016-08-31T05:27:46.107Z,11.86
2016-08-31T05:28:45.354Z,11.85
2016-08-31T05:29:46.834Z,11.91
2016-08-31T05:30:46.786Z,11.97
2016-08-31T05:31:46.863Z,11.96
2016-08-31T05:32:46.345Z,11.95
2016-08-31T05:33:46.141Z,12
2016-08-31T05:34:45.472Z,12.07
2016-08-31T05:35:46.188Z,12.21
2016-08-31T05:36:47.122Z,12.14
2016-08-31T05:37:45.518Z,12.23
2016-08-31T05:38:46.236Z,12.35
2016-08-31T05:39:46.968Z,12.44
2016-08-31T05:40:46.302Z,12.63
2016-08-31T05:41:46.306Z,13.16
2016-08-31T05:42:46.336Z,14.08
2016-08-31T05:43:46.331Z,15.22
2016-08-31T05:44:46.463Z,16.16
2016-08-31T05:45:46.387Z,17.3
2016-08-31T05:46:47.129Z,18.31
2016-08-31T05:47:46.427Z,19.24
2016-08-31T05:48:45.766Z,19.94
2016-08-31T05:49:46.465Z,20.74
2016-08-31T05:50:47.210Z,21.51
2016-08-31T05:51:46.596Z,22.08
2016-08-31T05:52:45.825Z,22.46
2016-08-31T05:53:45.856Z,22.74
2016-08-31T05:54:46.626Z,23.02
2016-08-31T05:55:47.306Z,23.28
2016-08-31T05:56:46.651Z,23.84
2016-08-31T05:57:47.369Z,24.14
2016-08-31T05:58:46.693Z,24.5
2016-08-31T05:59:46.006Z,24.62
2016-08-31T06:00:46.875Z,25.19
2016-08-31T06:01:46.060Z,25.66
2016-08-31T06:02:47.493Z,26.06
2016-08-31T06:03:46.806Z,26.51
2016-08-31T06:04:47.759Z,26.83
2016-08-31T06:05:47.774Z,27.41
2016-08-31T06:06:46.206Z,27.61
2016-08-31T06:07:46.914Z,27.95
2016-08-31T06:08:46.236Z,28.37
2016-08-31T06:09:47.686Z,28.67
2016-08-31T06:10:46.988Z,28.92
2016-08-31T06:11:47.016Z,29.09
2016-08-31T06:12:47.053Z,29.3
2016-08-31T06:13:47.125Z,29.37
2016-08-31T06:14:47.106Z,29.1
2016-08-31T06:15:46.446Z,28.83
2016-08-31T06:16:47.166Z,28.8
2016-08-31T06:17:47.174Z,28.68
2016-08-31T06:18:47.211Z,28.72
2016-08-31T06:19:47.285Z,28.78
2016-08-31T06:20:47.256Z,28.92
2016-08-31T06:21:46.605Z,28.87
2016-08-31T06:22:47.337Z,29.09
2016-08-31T06:23:46.670Z,29.3
2016-08-31T06:24:47.387Z,29.4
2016-08-31T06:25:47.403Z,29.64
2016-08-31T06:26:47.456Z,29.96
2016-08-31T06:27:47.465Z,30.11
2016-08-31T06:28:46.793Z,30.24
2016-08-31T06:29:47.534Z,30.31
2016-08-31T06:30:47.571Z,29.96
2016-08-31T06:31:48.294Z,29.77
2016-08-31T06:32:47.626Z,29.74
2016-08-31T06:33:47.301Z,29.52
2016-08-31T06:34:47.684Z,29.58
2016-08-31T06:35:47.724Z,29.57
2016-08-31T06:36:47.739Z,29.83
2016-08-31T06:37:47.823Z,30.1
2016-08-31T06:38:47.812Z,29.76
2016-08-31T06:39:47.111Z,29.74
2016-08-31T06:40:48.562Z,30.06
2016-08-31T06:41:48.581Z,30.21
2016-08-31T06:42:47.969Z,30.44
2016-08-31T06:43:47.243Z,30.56
2016-08-31T06:44:47.990Z,30.86
2016-08-31T06:45:48.006Z,30.89
2016-08-31T06:46:48.037Z,30.91
2016-08-31T06:47:47.374Z,30.96
2016-08-31T06:48:49.109Z,31.11
2016-08-31T06:49:47.440Z,31.05
2016-08-31T06:50:47.446Z,30.99
2016-08-31T06:51:48.987Z,30.92
2016-08-31T06:52:49.055Z,31
2016-08-31T06:53:47.541Z,31.04
2016-08-31T06:54:47.569Z,31.1
2016-08-31T06:55:49.483Z,30.86
2016-08-31T06:56:49.533Z,30.88
2016-08-31T06:57:49.065Z,31.17
2016-08-31T06:58:49.271Z,31.72
2016-08-31T06:59:49.236Z,31.89
2016-08-31T07:00:48.773Z,31.5
2016-08-31T07:01:49.182Z,31.33
2016-08-31T07:02:47.814Z,31.48
2016-08-31T07:03:49.255Z,31.77
2016-08-31T07:04:49.425Z,32.08
2016-08-31T07:05:49.319Z,32.08
2016-08-31T07:06:48.645Z,32.41
2016-08-31T07:07:49.402Z,32.23
2016-08-31T07:08:48.705Z,31.87
2016-08-31T07:09:48.035Z,31.47
2016-08-31T07:10:49.514Z,31.41
2016-08-31T07:11:49.511Z,31.32
2016-08-31T07:12:48.834Z,31.59
2016-08-31T07:13:49.116Z,32.07
2016-08-31T07:14:48.189Z,32.34
2016-08-31T07:15:49.141Z,32.78
2016-08-31T07:16:49.652Z,33.09
2016-08-31T07:17:49.106Z,33.23
2016-08-31T07:18:49.724Z,33.67
2016-08-31T07:19:49.783Z,34.18
2016-08-31T07:20:49.776Z,34.53
2016-08-31T07:21:49.114Z,34.59
2016-08-31T07:22:49.342Z,34.55
2016-08-31T07:23:49.163Z,34.79
2016-08-31T07:24:49.354Z,34.89
2016-08-31T07:25:49.935Z,35.08
2016-08-31T07:26:49.302Z,35.27
2016-08-31T07:27:49.285Z,35.13
2016-08-31T07:28:48.619Z,34.65
2016-08-31T07:29:49.415Z,33.81
2016-08-31T07:30:49.383Z,33.22
2016-08-31T07:31:48.746Z,32.45
2016-08-31T07:32:50.166Z,32.3
2016-08-31T07:33:49.529Z,32.29
2016-08-31T07:34:50.219Z,32.57
2016-08-31T07:35:48.913Z,32.72
2016-08-31T07:36:50.290Z,32.79
2016-08-31T07:37:48.905Z,32.49
2016-08-31T07:38:49.724Z,32.37
2016-08-31T07:39:49.663Z,32.27
2016-08-31T07:40:49.713Z,32.15
2016-08-31T07:41:49.744Z,32.29
2016-08-31T07:42:49.063Z,32.31
2016-08-31T07:43:49.797Z,32.53
2016-08-31T07:44:49.280Z,32.41
2016-08-31T07:45:49.864Z,31.95
2016-08-31T07:46:49.902Z,31.69
2016-08-31T07:47:50.638Z,31.29
2016-08-31T07:48:49.343Z,30.49
2016-08-31T07:49:49.985Z,29.74
2016-08-31T07:50:50.736Z,28.62
2016-08-31T07:51:50.766Z,27.5
2016-08-31T07:52:50.788Z,26.76
2016-08-31T07:53:50.106Z,26.04
2016-08-31T07:54:50.855Z,25.36
2016-08-31T07:55:50.235Z,24.77
2016-08-31T07:56:50.287Z,24.21
2016-08-31T07:57:50.225Z,23.76
2016-08-31T07:58:50.265Z,23.26
2016-08-31T07:59:49.587Z,23.01
2016-08-31T08:00:50.315Z,22.74
2016-08-31T08:01:50.360Z,22.49
2016-08-31T08:02:49.747Z,22.4
2016-08-31T08:03:50.458Z,22.3
2016-08-31T08:04:50.461Z,22.22
2016-08-31T08:05:50.316Z,22.07
2016-08-31T08:06:49.792Z,22.08
2016-08-31T08:07:50.795Z,22.07
2016-08-31T08:08:49.921Z,22.04
2016-08-31T08:09:50.585Z,22.06
2016-08-31T08:10:51.295Z,21.84
2016-08-31T08:11:50.605Z,21.81
2016-08-31T08:12:50.639Z,21.84
2016-08-31T08:13:49.949Z,21.85
2016-08-31T08:14:51.415Z,21.89
2016-08-31T08:15:50.719Z,21.91
2016-08-31T08:16:50.118Z,21.99
2016-08-31T08:17:51.604Z,21.83
2016-08-31T08:18:50.092Z,21.85
2016-08-31T08:19:50.131Z,21.89
2016-08-31T08:20:50.866Z,21.91
2016-08-31T08:21:51.583Z,21.89
2016-08-31T08:22:50.214Z,22
2016-08-31T08:23:51.655Z,21.99
2016-08-31T08:24:50.255Z,21.84
2016-08-31T08:25:50.993Z,21.89
2016-08-31T08:26:51.723Z,21.92
2016-08-31T08:27:51.034Z,22
2016-08-31T08:28:51.765Z,21.89
2016-08-31T08:29:51.085Z,22.04
2016-08-31T08:30:51.814Z,22.06
2016-08-31T08:31:51.843Z,22.08
2016-08-31T08:32:51.186Z,22.07
2016-08-31T08:33:51.216Z,22.01
2016-08-31T08:34:51.914Z,22.08
2016-08-31T08:35:51.354Z,22.06
2016-08-31T08:36:51.973Z,22.08
2016-08-31T08:37:51.401Z,22.06
2016-08-31T08:38:50.659Z,22.06
2016-08-31T08:39:52.059Z,22.08
2016-08-31T08:40:51.369Z,22.21
2016-08-31T08:41:52.118Z,22.21
2016-08-31T08:42:50.724Z,22.22
2016-08-31T08:43:52.395Z,22.01
2016-08-31T08:44:51.499Z,22.06
2016-08-31T08:45:51.485Z,22.1
2016-08-31T08:46:50.872Z,22.22
2016-08-31T08:47:50.826Z,22.15
2016-08-31T08:48:51.783Z,22.31
2016-08-31T08:49:52.305Z,22.3
2016-08-31T08:50:51.624Z,22.38
2016-08-31T08:51:51.663Z,22.38
2016-08-31T08:52:50.975Z,22.4
2016-08-31T08:53:51.823Z,22.46
2016-08-31T08:54:51.756Z,22.49
2016-08-31T08:55:51.894Z,22.41
2016-08-31T08:56:52.537Z,22.53
2016-08-31T08:57:51.840Z,22.52
2016-08-31T08:58:51.128Z,22.53
2016-08-31T08:59:52.579Z,22.59
2016-08-31T09:00:52.597Z,22.59
2016-08-31T09:01:51.896Z,22.56
2016-08-31T09:02:51.933Z,22.52
2016-08-31T09:03:52.665Z,22.49
2016-08-31T09:04:52.686Z,22.49
2016-08-31T09:05:52.724Z,22.61
2016-08-31T09:06:52.091Z,22.63
2016-08-31T09:07:52.772Z,22.71
2016-08-31T09:08:53.071Z,22.68
2016-08-31T09:09:52.113Z,22.76
2016-08-31T09:10:52.137Z,22.77
2016-08-31T09:11:51.442Z,22.78
2016-08-31T09:12:52.172Z,22.89
2016-08-31T09:13:52.274Z,22.92
2016-08-31T09:14:52.222Z,22.95
2016-08-31T09:15:52.273Z,23.01
2016-08-31T09:16:52.294Z,22.93
2016-08-31T09:17:51.632Z,22.98
2016-08-31T09:18:52.354Z,22.89
2016-08-31T09:19:53.174Z,22.92
2016-08-31T09:20:51.687Z,22.89
2016-08-31T09:21:53.186Z,23.02
2016-08-31T09:22:51.743Z,23.02
2016-08-31T09:23:53.162Z,22.95
2016-08-31T09:24:53.204Z,22.98
2016-08-31T09:25:52.526Z,23.02
2016-08-31T09:26:52.783Z,23.17
2016-08-31T09:27:52.012Z,23.26
2016-08-31T09:28:52.031Z,23.32
2016-08-31T09:29:52.622Z,23.34
2016-08-31T09:30:52.648Z,23.36
2016-08-31T09:31:52.680Z,23.33
2016-08-31T09:32:52.804Z,23.4
2016-08-31T09:33:53.419Z,23.39
2016-08-31T09:34:52.041Z,23.34
2016-08-31T09:35:52.172Z,23.42
2016-08-31T09:36:52.804Z,23.4
2016-08-31T09:37:52.833Z,23.34
2016-08-31T09:38:52.151Z,23.33
2016-08-31T09:39:53.601Z,23.39
2016-08-31T09:40:52.933Z,23.48
2016-08-31T09:41:53.727Z,23.47
2016-08-31T09:42:52.263Z,23.58
2016-08-31T09:43:52.991Z,23.66
2016-08-31T09:44:53.014Z,23.76
2016-08-31T09:45:53.781Z,23.7
2016-08-31T09:46:53.771Z,23.84
2016-08-31T09:47:52.497Z,23.85
2016-08-31T09:48:53.187Z,23.73
2016-08-31T09:49:53.861Z,23.81
2016-08-31T09:50:53.293Z,23.89
2016-08-31T09:51:53.914Z,23.86
2016-08-31T09:52:52.521Z,23.82
2016-08-31T09:53:53.963Z,23.84
2016-08-31T09:54:54.012Z,23.86
2016-08-31T09:55:52.612Z,23.89
2016-08-31T09:56:53.423Z,23.92
2016-08-31T09:57:54.067Z,23.89
2016-08-31T09:58:53.503Z,23.99
2016-08-31T09:59:53.574Z,23.94
2016-08-31T10:00:54.152Z,23.94
2016-08-31T10:01:52.813Z,23.88
2016-08-31T10:02:54.192Z,23.95
2016-08-31T10:03:52.814Z,23.99
2016-08-31T10:04:52.993Z,23.99
2016-08-31T10:05:53.590Z,24
2016-08-31T10:06:53.590Z,24.07
2016-08-31T10:07:52.980Z,24.09
2016-08-31T10:08:54.357Z,24.16
2016-08-31T10:09:53.683Z,24.14
2016-08-31T10:10:53.847Z,24.18
2016-08-31T10:11:54.432Z,24.22
2016-08-31T10:12:53.790Z,24.24
2016-08-31T10:13:54.501Z,24.32
2016-08-31T10:14:53.112Z,24.37
2016-08-31T10:15:54.559Z,24.4
2016-08-31T10:16:53.863Z,24.38
2016-08-31T10:17:53.207Z,24.41
2016-08-31T10:18:53.913Z,24.43
2016-08-31T10:19:54.659Z,24.41
2016-08-31T10:20:53.368Z,24.4
2016-08-31T10:21:54.144Z,24.43
2016-08-31T10:22:54.721Z,24.47
2016-08-31T10:23:54.073Z,24.51
2016-08-31T10:24:54.091Z,24.55
2016-08-31T10:25:54.166Z,24.56
2016-08-31T10:26:54.831Z,24.58
2016-08-31T10:27:54.872Z,24.69
2016-08-31T10:28:54.203Z,24.69
2016-08-31T10:29:54.204Z,24.77
2016-08-31T10:30:54.942Z,24.75
2016-08-31T10:31:53.558Z,24.78
2016-08-31T10:32:54.300Z,24.78
2016-08-31T10:33:55.021Z,24.77
2016-08-31T10:34:55.061Z,24.78
2016-08-31T10:35:55.080Z,24.86
2016-08-31T10:36:55.113Z,24.88
2016-08-31T10:37:54.431Z,25.01
2016-08-31T10:38:54.463Z,25.04
2016-08-31T10:39:55.398Z,25
2016-08-31T10:40:54.513Z,25.03
2016-08-31T10:41:54.529Z,25.14
2016-08-31T10:42:54.560Z,25.12
2016-08-31T10:43:55.296Z,25.16
2016-08-31T10:44:55.332Z,25.21
2016-08-31T10:45:53.943Z,25.31
2016-08-31T10:46:54.656Z,25.29
2016-08-31T10:47:55.401Z,25.25
2016-08-31T10:48:54.021Z,25.31
2016-08-31T10:49:55.447Z,25.29
2016-08-31T10:50:54.771Z,25.29
2016-08-31T10:51:54.120Z,25.29
2016-08-31T10:52:54.945Z,25.33
2016-08-31T10:53:55.555Z,25.3
2016-08-31T10:54:54.888Z,25.33
2016-08-31T10:55:54.904Z,25.36
2016-08-31T10:56:55.641Z,25.29
2016-08-31T10:57:54.252Z,25.34
2016-08-31T10:58:54.273Z,25.34
2016-08-31T10:59:55.723Z,25.29
2016-08-31T11:00:54.323Z,25.33
2016-08-31T11:01:55.085Z,25.37
2016-08-31T11:02:54.383Z,25.44
2016-08-31T11:03:55.821Z,25.48
2016-08-31T11:04:55.835Z,25.43
2016-08-31T11:05:55.888Z,25.51
2016-08-31T11:06:54.701Z,25.43
2016-08-31T11:07:55.235Z,25.48
2016-08-31T11:08:56.174Z,25.58
2016-08-31T11:09:56.152Z,25.62
2016-08-31T11:10:56.183Z,25.58
2016-08-31T11:11:55.506Z,25.61
2016-08-31T11:12:55.538Z,25.59
2016-08-31T11:13:55.502Z,25.56
2016-08-31T11:14:55.600Z,25.67
2016-08-31T11:15:56.150Z,25.55
2016-08-31T11:16:54.820Z,25.62
2016-08-31T11:17:55.559Z,25.59
2016-08-31T11:18:55.522Z,25.7
2016-08-31T11:19:56.255Z,25.54
2016-08-31T11:20:56.293Z,25.62
2016-08-31T11:21:55.610Z,25.7
2016-08-31T11:22:54.932Z,25.67
2016-08-31T11:23:55.756Z,25.63
2016-08-31T11:24:55.696Z,25.66
2016-08-31T11:25:56.542Z,25.68
2016-08-31T11:26:55.745Z,25.81
2016-08-31T11:27:55.834Z,25.8
2016-08-31T11:28:55.798Z,25.89
2016-08-31T11:29:55.118Z,25.92
2016-08-31T11:30:56.551Z,26.07
2016-08-31T11:31:55.875Z,26.04
2016-08-31T11:32:56.598Z,26.1
2016-08-31T11:33:56.635Z,26.04
2016-08-31T11:34:55.954Z,26.08
2016-08-31T11:35:55.277Z,26.07
2016-08-31T11:36:56.011Z,26.07
2016-08-31T11:37:56.053Z,26.04
2016-08-31T11:38:56.063Z,26.15
2016-08-31T11:39:56.267Z,26.18
2016-08-31T11:40:57.024Z,26.18
2016-08-31T11:41:56.213Z,26.08
2016-08-31T11:42:57.011Z,26.11
2016-08-31T11:43:56.901Z,26.22
2016-08-31T11:44:56.234Z,26.07
2016-08-31T11:45:55.573Z,26.11
2016-08-31T11:46:56.284Z,26.15
2016-08-31T11:47:55.605Z,26.22
2016-08-31T11:48:56.340Z,26.22
2016-08-31T11:49:57.063Z,26.22
2016-08-31T11:50:57.094Z,26.15
2016-08-31T11:51:57.134Z,26.26
2016-08-31T11:52:56.456Z,26.08
2016-08-31T11:53:56.475Z,26.11
2016-08-31T11:54:56.505Z,26.26
2016-08-31T11:55:56.534Z,26.24
2016-08-31T11:56:56.555Z,26.23
2016-08-31T11:57:57.317Z,26.26
2016-08-31T11:58:56.619Z,26.24
2016-08-31T11:59:55.934Z,26.24
2016-08-31T12:00:55.961Z,26.23
2016-08-31T12:01:57.374Z,26.27
2016-08-31T12:02:56.020Z,26.3
2016-08-31T12:03:57.445Z,26.34
2016-08-31T12:04:56.768Z,26.41
2016-08-31T12:05:56.806Z,26.41
2016-08-31T12:06:57.523Z,26.36
2016-08-31T12:07:57.560Z,26.37
2016-08-31T12:08:57.585Z,26.41
2016-08-31T12:09:56.201Z,26.42
2016-08-31T12:10:56.935Z,26.42
2016-08-31T12:11:56.263Z,26.42
2016-08-31T12:12:57.694Z,26.37
2016-08-31T12:13:57.783Z,26.36
2016-08-31T12:14:57.063Z,26.41
2016-08-31T12:15:57.152Z,26.37
2016-08-31T12:16:57.103Z,26.39
2016-08-31T12:17:57.842Z,26.39
2016-08-31T12:18:56.445Z,26.37
2016-08-31T12:19:57.183Z,26.44
2016-08-31T12:20:56.508Z,26.46
2016-08-31T12:21:57.251Z,26.46
2016-08-31T12:22:57.275Z,26.46
2016-08-31T12:23:57.285Z,26.44
2016-08-31T12:24:58.063Z,26.49
2016-08-31T12:25:57.365Z,26.48
2016-08-31T12:26:57.383Z,26.55
2016-08-31T12:27:57.460Z,26.46
2016-08-31T12:28:58.135Z,26.51
2016-08-31T12:29:58.284Z,26.51
2016-08-31T12:30:57.494Z,26.52
2016-08-31T12:31:57.515Z,26.52
2016-08-31T12:32:58.239Z,26.49
2016-08-31T12:33:57.556Z,26.55
2016-08-31T12:34:57.663Z,26.59
2016-08-31T12:35:57.809Z,26.55
2016-08-31T12:36:58.459Z,26.59
2016-08-31T12:37:56.962Z,26.68
2016-08-31T12:38:58.537Z,26.67
2016-08-31T12:39:57.734Z,26.79
2016-08-31T12:40:57.857Z,26.76
2016-08-31T12:41:58.491Z,26.7
2016-08-31T12:42:57.904Z,26.73
2016-08-31T12:43:57.921Z,26.74
2016-08-31T12:44:58.579Z,26.73
2016-08-31T12:45:57.997Z,26.73
2016-08-31T12:46:57.977Z,26.83
2016-08-31T12:47:57.958Z,26.82
2016-08-31T12:48:58.692Z,26.83
2016-08-31T12:49:57.317Z,26.85
2016-08-31T12:50:58.041Z,26.85
2016-08-31T12:51:57.343Z,26.73
2016-08-31T12:52:57.367Z,26.79
2016-08-31T12:53:58.113Z,26.67
2016-08-31T12:55:39.776Z,26.76
2016-08-31T12:56:59.232Z,26.76